Terminal Aerodrome Forecast
Issued by NWS

Home | Current Version | Previous Version | Graphics & Text | Print | Product List | Glossary On
Versions: 1 2 3 4 5 6 7 8 9 10 11 12 13 14 15
405
FTUS43 KABR 250533
TAFPIR
TAF
KPIR 250533Z 2506/2606 24013KT P6SM SKC
     FM250700 30026G36KT P6SM OVC025
     FM251400 30027G37KT P6SM SKC
     FM260100 31012KT P6SM SKC=

USA.gov is the U.S. government's official web portal to all federal, state and local government web resources and services.